Terminal Aerodrome Forecast
Issued by NWS

Home | Current Version | Previous Version | Text Only | Print | Product List | Glossary On
Versions: 1 2 3 4 5 6 7 8 9 10 11 12 13 14 15 16 17 18
000
FTUS43 KAPX 192323
TAFTVC
TAF
KTVC 192323Z 2000/2024 22014KT P6SM BKN200 WS010/24040KT
     FM200600 24012G21KT P6SM BKN020 WS010/26035KT
     FM200900 25009KT P6SM BKN120
     FM201900 24005KT P6SM SCT020 BKN120=

USA.gov is the U.S. government's official web portal to all federal, state and local government web resources and services.